• Join FlightAware (Why Join?)
  • Login
  • US Flag 
07:30PM EST


 

Airport Tracker/Info


-or-


 

Live Flight TrackerFlight Track Log ✈ SWA616 ✈ 18-Feb-2014 ✈ KPHX - KSJC

Flight Track Log - Related Links

Times and Time Zones

All times are in EST time to prevent confusion due to time zone crossing. See the SWA616 flight status page for this flight to view local times or setup timezone preferences in your user account.

Time Position Orientation Groundspeed Altitude Reporting Facility
EST Latitude Longitude Course Direction KTS MPH feet Rate Location/Type
11:37PM 33.4333 -112.0333 273° West 146 168 2,300  Level Phoenix TRACON
11:38PM 33.4167 -112.0500 220° Southwest 173 199 2,900 2,400 Climbing Phoenix TRACON
11:39PM 33.4008 -112.1361 258° West 212 244 6,400 3,300 Climbing Albuquerque Center
11:40PM 33.3778 -112.2250 253° West 275 316 10,600 3,540 Climbing Albuquerque Center
11:41PM 33.3856 -112.3331 275° West 340 391 13,700 3,540 Climbing Albuquerque Center
11:42PM 33.4006 -112.4447 279° West 340 391 17,800 3,720 Climbing Albuquerque Center
11:43PM 33.4475 -112.7351 273° West  Level FlightAware Approximate
11:43PM 33.4164 -112.5592 279° West 348 400 21,400  Level Albuquerque Center
11:44PM 33.4317 -112.6769 279° West 355 409 23,800 1,740 Climbing Albuquerque Center
11:45PM 33.4497 -112.8008 280° West 368 423 25,000 960 Climbing Albuquerque Center
11:46PM 33.4719 -112.9250 282° West 379 436 25,800 1,680 Climbing Albuquerque Center
11:47PM 33.5017 -113.0767 283° West 389 448 28,500 2,340 Climbing Albuquerque Center
11:48PM 33.5267 -113.2069 283° West 400 460 30,600 2,160 Climbing Albuquerque Center
11:49PM 33.5522 -113.3400 283° West 407 468 32,900 2,220 Climbing Albuquerque Center
11:50PM 33.5761 -113.4683 283° West 401 461 35,200 1,980 Climbing Albuquerque Center
11:51PM 33.6000 -113.5956 283° West 396 456 37,000 1,800 Climbing Albuquerque Center
11:52PM 33.6242 -113.7269 282° West 391 450 38,900 1,440 Climbing Albuquerque Center
11:53PM 33.6481 -113.8519 283° West 385 443 40,000 540 Climbing Albuquerque Center
11:54PM 33.6697 -113.9750 282° West 381 438 40,000  Level Albuquerque Center
11:55PM 33.6928 -114.0986 283° West 380 437 40,000  Level Albuquerque Center
11:56PM 33.7175 -114.2394 282° West 377 434 40,000  Level Albuquerque Center
11:57PM 33.7403 -114.3611 283° West 375 432 40,000  Level Albuquerque Center
11:58PM 33.7694 -114.4803 286° West 376 433 40,000  Level Albuquerque Center
11:59PM 33.8158 -114.6081 294° West 378 435 40,000  Level Los Angeles Center
12:00AM 33.8569 -114.7231 293° West 377 434 40,000  Level Los Angeles Center
12:01AM 33.8978 -114.8394 293° West 378 435 40,000  Level Los Angeles Center
12:02AM 33.9383 -114.9542 293° West 375 432 40,000  Level Los Angeles Center
12:03AM 33.9792 -115.0697 293° West 377 434 40,000  Level Los Angeles Center
12:04AM 34.0286 -115.2083 293° West 378 435 40,000  Level Los Angeles Center
12:05AM 34.0689 -115.3242 293° West 377 434 40,000  Level Los Angeles Center
12:08AM 34.1483 -115.5553 293° West 378 435 40,000  Level Los Angeles Center
12:09AM 34.1872 -115.6681 293° West 368 423 40,000  Level Los Angeles Center
12:10AM 34.2267 -115.7842 292° West 374 430 40,000  Level Los Angeles Center
12:11AM 34.2722 -115.9161 293° West 374 430 40,000  Level Los Angeles Center
12:12AM 34.3117 -116.0325 292° West 374 430 40,000  Level Los Angeles Center
12:13AM 34.3519 -116.1481 293° West 374 430 40,000  Level Los Angeles Center
12:14AM 34.3903 -116.2642 292° West 375 432 40,000  Level Los Angeles Center
12:15AM 34.4297 -116.3789 293° West 370 426 40,000  Level Los Angeles Center
12:16AM 34.4697 -116.4953 293° West 375 432 40,000  Level Los Angeles Center
12:17AM 34.5075 -116.6117 292° West 372 428 40,000  Level Los Angeles Center
12:18AM 34.5467 -116.7286 292° West 375 432 40,000  Level Los Angeles Center
12:19AM 34.5864 -116.8456 292° West 375 432 40,000  Level Los Angeles Center
12:20AM 34.6331 -116.9861 292° West 375 432 40,000  Level Los Angeles Center
12:21AM 34.6717 -117.1047 292° West 378 435 40,000  Level Los Angeles Center
12:22AM 34.7100 -117.2222 292° West 374 430 40,000  Level Los Angeles Center
12:23AM 34.7481 -117.3397 292° West 373 429 40,000  Level Los Angeles Center
12:24AM 34.7792 -117.4358 292° West 376 433 40,000  Level Los Angeles Center
12:25AM 34.8256 -117.5800 291° West 379 436 40,000  Level Los Angeles Center
12:26AM 34.8647 -117.7011 292° West 380 437 40,000  Level Los Angeles Center
12:27AM 34.9042 -117.8225 292° West 381 438 40,000  Level Los Angeles Center
12:28AM 34.9431 -117.9425 292° West 380 437 40,000  Level Los Angeles Center
12:29AM 34.9736 -118.0381 291° West 377 434 40,000  Level Los Angeles Center
12:30AM 35.0192 -118.1794 292° West 373 429 40,000  Level Los Angeles Center
12:31AM 35.0575 -118.3000 291° West 379 436 40,000  Level Los Angeles Center
12:32AM 35.0961 -118.4214 291° West 384 442 40,000  Level Los Angeles Center
12:33AM 35.1372 -118.5522 291° West 381 438 40,000  Level Los Angeles Center
12:34AM 35.1750 -118.6725 291° West 381 438 40,000 -600 Level Los Angeles Center
12:35AM 35.2125 -118.7944 291° West 383 441 38,900 -1,020 Descending Los Angeles Center
12:36AM 35.2514 -118.9133 292° West 378 435 38,000 -480 Descending Los Angeles Center
12:37AM 35.2944 -119.0536 291° West 370 426 38,000  Level Los Angeles Center
12:38AM 35.3300 -119.1725 290° West 372 428 38,000  Level Los Angeles Center
12:39AM 35.3681 -119.2903 292° West 373 429 38,000  Level Los Angeles Center
12:40AM 35.4036 -119.4089 290° West 373 429 38,000  Level Los Angeles Center
12:41AM 35.4397 -119.5283 290° West 374 430 38,000  Level Los Angeles Center
12:42AM 35.4756 -119.6464 290° West 373 429 38,000  Level Los Angeles Center
12:43AM 35.5100 -119.7647 290° West 372 428 38,000  Level Los Angeles Center
12:44AM 35.5453 -119.8794 291° West 364 419 38,000  Level Los Angeles Center
12:45AM 35.5797 -119.9969 290° West 367 422 38,000  Level Los Angeles Center
12:46AM 35.6214 -120.1361 290° West 367 422 38,000  Level Los Angeles Center
12:47AM 35.6486 -120.2325 289° West 368 423 38,000  Level Los Angeles Center
12:48AM 35.6847 -120.3439 292° West 364 419 38,000  Level Oakland Center
12:49AM 35.7522 -120.4400 311° West 374 430 38,000  Level Oakland Center
12:50AM 35.8211 -120.5344 312° West 373 429 38,000  Level Oakland Center
12:51AM 35.8903 -120.6297 312° West 374 430 38,000 -780 Level Oakland Center
12:52AM 35.9581 -120.7228 312° West 367 422 36,500 -1,980 Descending Oakland Center
12:53AM 36.0233 -120.8133 312° West 357 411 34,100 -2,280 Descending Oakland Center
12:54AM 36.0894 -120.9044 312° West 357 411 31,900 -2,100 Descending Oakland Center
12:55AM 36.1525 -120.9936 311° West 347 399 29,900 -2,220 Descending Oakland Center
12:56AM 36.2275 -121.0969 312° West 338 389 27,500 -2,220 Descending Oakland Center
12:57AM 36.2881 -121.1831 311° West 333 383 25,500 -1,920 Descending Oakland Center
12:58AM 36.3472 -121.2658 312° West 323 372 23,600 -1,980 Descending Oakland Center
12:59AM 36.4069 -121.3494 312° West 322 371 21,500 -1,980 Descending Oakland Center
01:00AM 36.4664 -121.4286 313° West 317 365 19,600 -1,980 Descending Oakland Center
01:01AM 36.5453 -121.4764 334° Northwest 325 374 17,600 -1,980 Descending Oakland Center
01:02AM 36.6367 -121.4944 351° North 331 381 15,700 -1,920 Descending Oakland Center
01:03AM 36.7239 -121.5106 352° North 320 368 13,800 -1,860 Descending Oakland Center
01:04AM 36.8131 -121.5256 352° North 321 369 12,000 -1,800 Descending Oakland Center
01:05AM 36.8981 -121.5417 351° North 311 358 10,200 -1,380 Descending Oakland Center
01:06AM 36.9789 -121.5539 353° North 297 342 9,200 -1,200 Descending Oakland Center
01:07AM 37.0481 -121.5919 336° Northwest 286 329 7,800 -1,740 Descending Oakland Center
01:08AM 37.1039 -121.6444 323° Northwest 261 300 5,800 -1,380 Descending Oakland Center
01:09AM 37.1536 -121.7014 318° Northwest 221 254 5,100 -660 Descending Oakland Center
01:10AM 37.1844 -121.7361 318° Northwest 180 207 4,500 -720 Descending Oakland Center
01:11AM 37.2158 -121.7694 320° Northwest 160 184 3,700 -840 Descending Oakland Center
01:12AM 37.2469 -121.8042 318° Northwest 153 176 2,900 -840 Descending Oakland Center
01:13AM 37.2786 -121.8383 319° Northwest 151 174 2,100 -780 Descending Oakland Center
01:14AM 37.3092 -121.8722 319° Northwest 149 171 1,400 -780 Descending Oakland Center
01:15AM 37.3364 -121.9025 319° Northwest 140 161 600 -840 Descending Oakland Center
01:18AM 37.3500 -121.9167 North  Level FlightAware Approximate
01:25AM 37.3627 -121.9291 North  Level Estimated